Time;durP1;ratioP1;P1;durP2;ratioP2;P2;SDS_P1;SDS_P2;PMS_P1;PMS_P2;Temp;Humidity;BMP_temperature;BMP_pressure;BME280_temperature;BME280_humidity;BME280_pressure;Samples;Min_cycle;Max_cycle;Signal;HPM_P1;HPM_P2
2022/01/14 00:00:13;;;;;;;24.88;15.30;;;4.00;99.90;;;;;;2106130;28;20062;-72
2022/01/14 00:01:14;;;;;;;25.90;14.98;;;4.00;99.90;;;;;;2113776;28;20113;-72
2022/01/14 00:02:18;;;;;;;23.10;15.00;;;4.00;99.90;;;;;;2114094;28;20051;-72
2022/01/14 00:03:19;;;;;;;23.00;14.80;;;4.00;99.90;;;;;;2113896;28;20028;-72
2022/01/14 00:04:20;;;;;;;26.38;15.15;;;4.00;99.90;;;;;;2114029;28;20505;-72
2022/01/14 00:05:22;;;;;;;25.17;15.00;;;4.00;99.90;;;;;;2114893;28;20035;-72
2022/01/14 00:06:23;;;;;;;25.13;15.20;;;4.10;99.90;;;;;;2114193;28;20031;-72
2022/01/14 00:07:27;;;;;;;24.52;15.20;;;4.10;99.90;;;;;;2114213;28;20097;-72
2022/01/14 00:08:28;;;;;;;25.88;14.68;;;4.00;99.90;;;;;;2114223;28;20356;-72
2022/01/14 00:09:33;;;;;;;23.52;14.65;;;4.00;99.90;;;;;;2114238;28;20072;-72
2022/01/14 00:10:35;;;;;;;23.73;14.60;;;4.10;99.90;;;;;;2113400;28;20035;-72
2022/01/14 00:11:44;;;;;;;22.98;14.68;;;4.10;99.90;;;;;;2112734;28;20093;-72
2022/01/14 00:12:53;;;;;;;25.35;14.48;;;4.10;99.90;;;;;;2114163;28;20558;-72
2022/01/14 00:15:13;;;;;;;24.50;15.10;;;4.10;99.90;;;;;;2114163;28;20039;-72
2022/01/14 00:15:34;;;;;;;22.95;14.50;;;4.10;99.90;;;;;;2113285;28;20525;-72
2022/01/14 00:16:36;;;;;;;23.80;15.25;;;4.10;99.90;;;;;;2114202;28;20034;-72
2022/01/14 00:17:40;;;;;;;24.08;14.10;;;4.10;99.90;;;;;;2114070;28;20099;-72
2022/01/14 00:18:41;;;;;;;24.88;15.02;;;4.00;99.90;;;;;;2114033;28;20023;-72
2022/01/14 00:19:43;;;;;;;24.98;14.32;;;4.10;99.90;;;;;;2113362;28;20406;-73
2022/01/14 00:20:44;;;;;;;24.63;14.20;;;4.00;99.90;;;;;;2112912;28;20023;-72
2022/01/14 00:21:45;;;;;;;25.33;15.50;;;4.10;99.90;;;;;;2113379;28;20513;-72
2022/01/14 00:22:47;;;;;;;26.90;15.40;;;4.10;99.90;;;;;;2106593;28;20055;-72
2022/01/14 00:23:52;;;;;;;22.40;14.27;;;4.00;99.90;;;;;;2115581;28;20034;-72
2022/01/14 00:32:47;;;;;;;25.73;15.07;;;3.90;99.90;;;;;;2114083;28;20027;-72
2022/01/14 00:33:48;;;;;;;25.42;14.77;;;3.80;99.90;;;;;;2115215;28;20088;-72
2022/01/14 00:34:49;;;;;;;23.52;14.40;;;3.80;99.90;;;;;;2114335;28;20152;-72
2022/01/14 00:35:50;;;;;;;25.35;14.75;;;3.80;99.90;;;;;;2114171;28;20486;-72
2022/01/14 00:36:51;;;;;;;23.98;14.25;;;3.70;99.90;;;;;;2114023;28;20028;-72
2022/01/14 00:37:52;;;;;;;27.00;15.27;;;3.70;99.90;;;;;;2114149;28;20030;-72
2022/01/14 00:38:53;;;;;;;26.20;15.55;;;3.60;99.90;;;;;;2114649;28;20099;-72
2022/01/14 00:39:54;;;;;;;25.58;15.15;;;3.60;99.90;;;;;;2114550;28;20023;-72
2022/01/14 00:40:54;;;;;;;26.55;14.68;;;3.50;99.90;;;;;;2113327;28;20016;-71
2022/01/14 00:41:57;;;;;;;23.63;14.57;;;3.50;99.90;;;;;;2114007;28;20150;-72
2022/01/14 00:42:58;;;;;;;24.90;14.95;;;3.40;99.90;;;;;;2114651;28;20024;-72
2022/01/14 00:44:01;;;;;;;24.83;15.23;;;3.40;99.90;;;;;;2115256;28;20475;-72
2022/01/14 00:45:06;;;;;;;24.75;14.88;;;3.40;99.90;;;;;;2114479;28;20016;-72
2022/01/14 00:46:08;;;;;;;25.45;16.25;;;3.30;99.90;;;;;;2113794;28;20040;-72
2022/01/14 00:47:09;;;;;;;23.73;15.10;;;3.30;99.90;;;;;;2113813;28;20023;-72
2022/01/14 00:48:10;;;;;;;25.58;15.07;;;3.30;99.90;;;;;;2114355;28;20057;-72
2022/01/14 00:49:12;;;;;;;24.60;14.80;;;3.30;99.90;;;;;;2114082;28;20055;-72
2022/01/14 00:50:18;;;;;;;24.58;15.45;;;3.20;99.90;;;;;;2113899;28;20086;-72
2022/01/14 00:51:19;;;;;;;24.17;14.82;;;3.20;99.90;;;;;;2113775;28;20031;-72
2022/01/14 00:52:19;;;;;;;24.95;14.80;;;3.20;99.90;;;;;;2113531;28;20119;-72
2022/01/14 00:53:20;;;;;;;23.70;15.02;;;3.20;99.90;;;;;;2105055;28;20032;-72
2022/01/14 00:54:25;;;;;;;25.17;15.50;;;3.10;99.90;;;;;;2113213;28;20031;-71
2022/01/14 00:55:39;;;;;;;24.92;15.52;;;3.10;99.90;;;;;;2114906;28;20016;-72
2022/01/14 00:57:02;;;;;;;24.95;14.98;;;3.00;99.90;;;;;;2115728;28;20022;-72
2022/01/14 00:59:15;;;;;;;25.15;14.68;;;3.00;99.90;;;;;;2115095;28;20629;-72
2022/01/14 01:00:19;;;;;;;27.25;16.13;;;2.90;99.90;;;;;;2114991;28;20059;-72
2022/01/14 01:01:20;;;;;;;25.52;15.73;;;3.00;99.90;;;;;;2114936;28;20022;-73
2022/01/14 01:02:21;;;;;;;25.65;16.05;;;3.00;99.90;;;;;;2115255;27;20031;-72
2022/01/14 01:03:25;;;;;;;25.42;15.13;;;3.00;99.90;;;;;;2115721;28;20490;-72
2022/01/14 01:04:36;;;;;;;25.73;15.50;;;3.00;99.90;;;;;;2115822;28;20469;-72
2022/01/14 01:05:37;;;;;;;25.90;15.50;;;3.00;99.90;;;;;;2115349;28;20434;-72
2022/01/14 01:06:40;;;;;;;23.85;15.02;;;3.00;99.90;;;;;;2115399;28;20027;-71
2022/01/14 01:07:55;;;;;;;25.73;15.38;;;3.00;99.90;;;;;;2115081;28;20016;-71
2022/01/14 01:08:58;;;;;;;27.63;15.85;;;2.90;99.90;;;;;;2115478;28;20496;-71
2022/01/14 01:10:05;;;;;;;27.58;15.65;;;2.90;99.90;;;;;;2114908;28;20034;-71
2022/01/14 01:11:10;;;;;;;25.95;15.77;;;2.90;99.90;;;;;;2106729;28;20507;-72
2022/01/14 01:12:28;;;;;;;25.10;15.45;;;2.90;99.90;;;;;;2114601;28;20122;-71
2022/01/14 01:13:33;;;;;;;25.42;15.15;;;2.90;99.90;;;;;;2115520;28;20174;-71
2022/01/14 01:15:02;;;;;;;26.20;15.50;;;2.90;99.90;;;;;;2114939;28;20051;-71
2022/01/14 01:16:03;;;;;;;24.50;15.20;;;2.90;99.90;;;;;;2110289;28;20024;-71
2022/01/14 01:17:04;;;;;;;26.58;15.85;;;2.90;99.90;;;;;;2106308;28;20028;-72
2022/01/14 01:18:06;;;;;;;26.45;15.60;;;2.90;99.90;;;;;;2114933;28;20047;-71
2022/01/14 01:19:07;;;;;;;26.48;15.60;;;2.80;99.90;;;;;;2115398;28;20036;-71
2022/01/14 01:20:12;;;;;;;27.20;15.68;;;2.80;99.90;;;;;;2115368;28;20055;-71
2022/01/14 01:21:13;;;;;;;25.48;15.48;;;2.80;99.90;;;;;;2115144;28;20024;-71
2022/01/14 01:22:19;;;;;;;26.38;15.85;;;2.80;99.90;;;;;;2115276;28;20570;-71
2022/01/14 01:23:35;;;;;;;26.13;15.52;;;2.80;99.90;;;;;;2114973;28;20027;-71
2022/01/14 01:24:45;;;;;;;29.92;16.02;;;2.80;99.90;;;;;;2115864;27;20059;-71
2022/01/14 01:25:56;;;;;;;24.60;15.40;;;2.80;99.90;;;;;;2123125;27;20042;-71
2022/01/14 01:26:57;;;;;;;24.75;15.02;;;2.80;99.90;;;;;;2114930;28;20023;-71
2022/01/14 01:28:07;;;;;;;25.02;15.52;;;2.80;99.90;;;;;;2115150;28;20028;-70
2022/01/14 01:30:26;;;;;;;26.98;15.02;;;2.80;99.90;;;;;;2115622;28;20028;-70
2022/01/14 01:31:40;;;;;;;26.40;15.32;;;2.80;99.90;;;;;;2114098;28;20113;-71
2022/01/14 01:32:48;;;;;;;25.88;15.38;;;2.80;99.90;;;;;;2114771;28;20024;-70
2022/01/14 01:33:49;;;;;;;25.45;15.30;;;2.70;99.90;;;;;;2115226;28;20397;-71
2022/01/14 01:34:52;;;;;;;26.15;15.50;;;2.70;99.90;;;;;;2115343;28;20027;-71
2022/01/14 01:35:59;;;;;;;24.75;14.90;;;2.70;99.90;;;;;;2115302;28;20435;-71
2022/01/14 01:37:03;;;;;;;28.38;16.27;;;2.70;99.90;;;;;;2115401;28;20478;-71
2022/01/14 01:38:06;;;;;;;28.10;16.13;;;2.70;99.90;;;;;;2114562;28;20028;-71
2022/01/14 01:39:10;;;;;;;26.13;16.23;;;2.70;99.90;;;;;;2114793;28;20016;-71
2022/01/14 01:40:19;;;;;;;24.38;15.38;;;2.70;99.90;;;;;;2115195;27;20560;-71
2022/01/14 01:41:21;;;;;;;25.65;15.63;;;2.70;99.90;;;;;;2105841;28;20028;-71
2022/01/14 01:42:27;;;;;;;24.95;15.57;;;2.80;99.90;;;;;;2097796;28;20035;-71
2022/01/14 01:43:29;;;;;;;27.17;16.35;;;2.80;99.90;;;;;;2114616;28;20119;-71
2022/01/14 01:44:31;;;;;;;27.05;16.00;;;2.80;99.90;;;;;;2115307;28;20548;-71
2022/01/14 01:45:35;;;;;;;29.48;16.58;;;2.80;99.90;;;;;;2114670;28;20028;-71
2022/01/14 01:46:39;;;;;;;26.90;16.25;;;2.70;99.90;;;;;;2114667;28;20036;-71
2022/01/14 01:47:50;;;;;;;31.05;17.40;;;2.70;99.90;;;;;;2115268;28;20500;-71
2022/01/14 01:48:52;;;;;;;30.00;17.13;;;2.70;99.90;;;;;;2115180;28;20035;-70
2022/01/14 01:49:57;;;;;;;28.55;17.13;;;2.70;99.90;;;;;;2115201;28;20027;-71
2022/01/14 01:51:04;;;;;;;31.70;17.88;;;2.70;99.90;;;;;;2114024;28;20046;-71
2022/01/14 01:52:06;;;;;;;30.30;17.92;;;2.70;99.90;;;;;;2114361;28;20031;-71
2022/01/14 01:53:09;;;;;;;29.90;17.85;;;2.70;99.90;;;;;;2114292;28;20036;-71
2022/01/14 01:54:16;;;;;;;29.60;17.13;;;2.70;99.90;;;;;;2115107;27;20039;-72
2022/01/14 01:55:18;;;;;;;27.98;16.98;;;2.60;99.90;;;;;;2115150;28;20043;-71
2022/01/14 01:56:18;;;;;;;27.80;16.45;;;2.60;99.90;;;;;;2115079;27;20030;-72
2022/01/14 01:57:21;;;;;;;27.42;16.85;;;2.60;99.90;;;;;;2115346;28;20465;-71
2022/01/14 01:58:22;;;;;;;30.60;17.70;;;2.60;99.90;;;;;;2115091;28;20123;-71
2022/01/14 01:59:24;;;;;;;28.55;17.05;;;2.60;99.90;;;;;;2115344;28;20474;-71
2022/01/14 02:00:27;;;;;;;26.92;16.35;;;2.60;99.90;;;;;;2115266;28;20039;-71
2022/01/14 02:01:33;;;;;;;28.92;17.38;;;2.50;99.90;;;;;;2114529;28;20402;-72
2022/01/14 02:02:36;;;;;;;30.02;17.35;;;2.50;99.90;;;;;;2115078;28;20020;-72
2022/01/14 02:03:41;;;;;;;31.35;18.15;;;2.50;99.90;;;;;;2117734;28;20020;-72
2022/01/14 02:04:42;;;;;;;29.38;17.38;;;2.60;99.90;;;;;;2119243;28;20024;-72
2022/01/14 02:05:45;;;;;;;31.70;18.08;;;2.60;99.90;;;;;;2109881;28;20029;-72
2022/01/14 02:06:46;;;;;;;31.33;17.77;;;2.60;99.90;;;;;;2108491;28;20028;-72
2022/01/14 02:07:51;;;;;;;27.65;16.67;;;2.50;99.90;;;;;;2115592;27;20045;-72
2022/01/14 02:08:52;;;;;;;30.35;17.58;;;2.60;99.90;;;;;;2106142;27;20036;-72
2022/01/14 02:09:53;;;;;;;29.70;17.98;;;2.50;99.90;;;;;;2106552;28;20016;-72
2022/01/14 02:10:54;;;;;;;29.60;17.98;;;2.60;99.90;;;;;;2114474;28;20119;-72
2022/01/14 02:11:57;;;;;;;31.00;18.30;;;2.60;99.90;;;;;;2114274;28;20019;-72
2022/01/14 02:13:01;;;;;;;30.55;17.88;;;2.60;99.90;;;;;;2114552;28;20494;-72
2022/01/14 02:14:12;;;;;;;29.42;17.80;;;2.60;99.90;;;;;;2114260;28;20069;-71
2022/01/14 02:15:28;;;;;;;;;;;2.70;99.90;;;;;;2106438;28;20028;-71
2022/01/14 02:16:57;;;;;;;33.13;18.38;;;2.70;99.90;;;;;;2109609;28;19907;-71
2022/01/14 02:19:24;;;;;;;32.90;17.30;;;2.70;99.90;;;;;;2115142;28;20041;-70
2022/01/14 02:23:10;;;;;;;32.25;18.67;;;2.80;99.90;;;;;;2114380;28;20219;-71
2022/01/14 02:24:32;;;;;;;33.25;18.63;;;2.70;99.90;;;;;;2114286;28;20099;-70
2022/01/14 02:25:34;;;;;;;32.58;18.13;;;2.80;99.90;;;;;;2115113;28;20020;-71
2022/01/14 02:26:51;;;;;;;30.20;18.15;;;2.80;99.90;;;;;;2115657;28;20029;-71
2022/01/14 02:27:54;;;;;;;33.70;18.67;;;2.80;99.90;;;;;;2115669;28;20521;-71
2022/01/14 02:28:58;;;;;;;28.75;17.00;;;2.80;99.90;;;;;;2114674;28;20192;-71
2022/01/14 02:29:59;;;;;;;28.63;16.48;;;2.80;99.90;;;;;;2114703;28;20525;-71
2022/01/14 02:31:00;;;;;;;29.35;17.65;;;2.80;99.90;;;;;;2114254;28;20027;-71
2022/01/14 02:32:04;;;;;;;28.67;17.52;;;2.80;99.90;;;;;;2114561;28;20028;-71
2022/01/14 02:33:06;;;;;;;31.30;18.02;;;2.80;99.90;;;;;;2115203;28;20723;-71
2022/01/14 02:34:10;;;;;;;33.67;19.55;;;2.80;99.90;;;;;;2115153;28;20471;-71
2022/01/14 02:35:11;;;;;;;31.92;18.90;;;2.90;99.90;;;;;;2115086;28;20498;-71
2022/01/14 02:36:17;;;;;;;32.28;18.92;;;2.90;99.90;;;;;;2115350;28;20023;-71
2022/01/14 02:37:20;;;;;;;33.00;18.70;;;2.90;99.90;;;;;;2115925;28;20030;-71
2022/01/14 02:38:21;;;;;;;33.60;19.20;;;2.90;99.90;;;;;;2115329;28;20039;-71
2022/01/14 02:39:21;;;;;;;34.15;19.33;;;2.90;99.90;;;;;;2115563;28;20127;-71
2022/01/14 02:40:23;;;;;;;34.85;20.25;;;2.90;99.90;;;;;;2115291;28;20065;-71
2022/01/14 02:41:24;;;;;;;33.58;19.40;;;2.90;99.90;;;;;;2114303;28;20023;-72
2022/01/14 02:42:25;;;;;;;34.05;19.42;;;2.90;99.90;;;;;;2116585;28;20020;-71
2022/01/14 02:43:26;;;;;;;33.42;20.10;;;2.90;99.90;;;;;;2117775;28;20024;-71
2022/01/14 02:44:29;;;;;;;36.35;20.65;;;2.90;99.90;;;;;;2118394;28;20050;-71
2022/01/14 02:45:33;;;;;;;36.67;19.73;;;2.90;99.90;;;;;;2116763;28;20034;-72
2022/01/14 02:46:39;;;;;;;33.90;19.88;;;2.90;99.90;;;;;;2114967;28;20019;-71
2022/01/14 02:47:42;;;;;;;33.45;18.88;;;3.00;99.90;;;;;;2114398;28;20525;-71
2022/01/14 02:48:42;;;;;;;37.05;21.48;;;2.90;99.90;;;;;;2114367;28;20035;-71
2022/01/14 02:49:43;;;;;;;39.08;21.52;;;3.00;99.90;;;;;;2114909;28;20023;-70
2022/01/14 02:51:07;;;;;;;36.63;21.35;;;3.00;99.90;;;;;;2114292;28;20019;-71
2022/01/14 02:52:09;;;;;;;35.47;20.58;;;2.90;99.90;;;;;;2113907;28;20157;-71
2022/01/14 02:53:26;;;;;;;35.28;20.35;;;2.90;99.90;;;;;;2114367;28;20150;-71
2022/01/14 02:54:32;;;;;;;36.95;20.85;;;2.90;99.90;;;;;;2114863;28;20027;-71
2022/01/14 02:55:34;;;;;;;37.50;21.27;;;2.90;99.90;;;;;;2115016;28;20027;-71
2022/01/14 02:56:37;;;;;;;37.78;21.95;;;2.90;99.90;;;;;;2114679;28;20111;-71
2022/01/14 02:57:38;;;;;;;38.80;22.10;;;2.90;99.90;;;;;;2114686;28;20059;-72
2022/01/14 02:58:41;;;;;;;35.65;20.80;;;2.90;99.90;;;;;;2114154;28;20020;-71
2022/01/14 02:59:47;;;;;;;41.13;22.75;;;3.00;99.90;;;;;;2114242;28;20016;-71
2022/01/14 03:00:50;;;;;;;37.92;22.20;;;3.00;99.90;;;;;;2113536;28;20020;-72
2022/01/14 03:01:52;;;;;;;38.30;22.25;;;3.00;99.90;;;;;;2113679;28;20063;-71
2022/01/14 03:02:53;;;;;;;39.72;22.02;;;3.00;99.90;;;;;;2114676;28;20024;-72
2022/01/14 03:04:00;;;;;;;39.25;22.30;;;3.00;99.90;;;;;;2114669;28;20066;-73
2022/01/14 03:05:02;;;;;;;40.67;22.35;;;3.00;99.90;;;;;;2115137;27;20059;-71
2022/01/14 03:06:04;;;;;;;40.35;22.83;;;3.00;99.90;;;;;;2114352;28;20032;-70
2022/01/14 03:07:08;;;;;;;39.78;22.73;;;3.00;99.90;;;;;;2114434;28;20698;-71
2022/01/14 03:08:09;;;;;;;40.88;23.15;;;3.00;99.90;;;;;;2114873;28;20016;-71
2022/01/14 03:09:11;;;;;;;41.35;23.70;;;2.90;99.90;;;;;;2114882;28;20024;-71
2022/01/14 03:10:14;;;;;;;42.05;23.15;;;3.00;99.90;;;;;;2105532;28;20024;-71
2022/01/14 03:11:23;;;;;;;38.20;22.10;;;3.00;99.90;;;;;;2106329;28;20024;-70
2022/01/14 03:12:24;;;;;;;42.45;23.67;;;3.00;99.90;;;;;;2113925;28;20507;-71
2022/01/14 03:13:28;;;;;;;41.05;23.48;;;3.00;99.90;;;;;;2114872;28;20090;-71
2022/01/14 03:14:29;;;;;;;42.78;23.88;;;3.00;99.90;;;;;;2106163;28;20028;-71
2022/01/14 03:15:31;;;;;;;40.00;22.55;;;3.00;99.90;;;;;;2098143;28;20507;-71
2022/01/14 03:16:39;;;;;;;42.25;23.30;;;2.90;99.90;;;;;;2114759;28;20020;-71
2022/01/14 03:17:40;;;;;;;40.15;22.88;;;2.90;99.90;;;;;;2115064;28;20774;-72
2022/01/14 03:18:45;;;;;;;40.25;22.50;;;2.90;99.90;;;;;;2115380;28;20024;-71
2022/01/14 03:19:47;;;;;;;44.53;23.50;;;2.90;99.90;;;;;;2117524;28;20030;-71
2022/01/14 03:20:50;;;;;;;42.55;23.85;;;3.00;99.90;;;;;;2116200;28;20091;-71
2022/01/14 03:22:06;;;;;;;42.42;23.42;;;3.00;99.90;;;;;;2116454;28;20023;-71
2022/01/14 03:23:11;;;;;;;40.65;22.27;;;3.00;99.90;;;;;;2114686;28;20031;-71
2022/01/14 03:25:48;;;;;;;45.00;24.75;;;3.00;99.90;;;;;;2114599;28;20110;-71
2022/01/14 03:26:51;;;;;;;43.97;23.83;;;3.00;99.90;;;;;;2114596;28;20564;-71
2022/01/14 03:27:53;;;;;;;43.03;23.42;;;2.90;99.90;;;;;;2114342;28;20031;-71
2022/01/14 03:28:55;;;;;;;44.80;24.50;;;3.00;99.90;;;;;;2114537;28;20024;-72
2022/01/14 03:29:56;;;;;;;43.10;25.02;;;3.00;99.90;;;;;;2113895;28;20031;-71
2022/01/14 03:30:59;;;;;;;46.88;24.95;;;2.90;99.90;;;;;;2113383;28;20371;-71
2022/01/14 03:32:02;;;;;;;45.38;25.23;;;3.00;99.90;;;;;;2114102;28;20066;-70
2022/01/14 03:33:03;;;;;;;43.10;23.73;;;2.90;99.90;;;;;;2114641;28;20548;-70
2022/01/14 03:34:04;;;;;;;44.17;23.65;;;3.00;99.90;;;;;;2114149;28;20032;-71
2022/01/14 03:35:09;;;;;;;44.28;24.42;;;2.90;99.90;;;;;;2114386;28;20118;-71
2022/01/14 03:36:11;;;;;;;43.03;24.20;;;3.00;99.90;;;;;;2114718;28;20040;-70
2022/01/14 03:37:12;;;;;;;41.65;23.20;;;2.90;99.90;;;;;;2113865;28;20567;-71
2022/01/14 03:38:15;;;;;;;42.88;24.60;;;2.90;99.90;;;;;;2105423;28;20028;-71
2022/01/14 03:39:18;;;;;;;46.60;24.92;;;2.90;99.90;;;;;;2105963;28;20024;-71
2022/01/14 03:40:18;;;;;;;43.78;24.17;;;2.90;99.90;;;;;;2113264;28;20077;-71
2022/01/14 03:41:19;;;;;;;43.45;24.58;;;2.90;99.90;;;;;;2113389;28;20042;-71
2022/01/14 03:42:20;;;;;;;42.10;23.88;;;2.90;99.90;;;;;;2113713;28;20023;-70
2022/01/14 03:43:23;;;;;;;42.58;23.77;;;2.90;99.90;;;;;;2114197;28;20024;-71
2022/01/14 03:44:24;;;;;;;43.42;23.95;;;2.90;99.90;;;;;;2113826;28;20621;-70
2022/01/14 03:45:28;;;;;;;42.47;23.63;;;3.00;99.90;;;;;;2114701;28;20034;-71
2022/01/14 03:46:29;;;;;;;41.58;23.73;;;3.00;99.90;;;;;;2114101;28;20088;-70
2022/01/14 03:47:38;;;;;;;40.72;23.30;;;3.00;99.90;;;;;;2114225;28;20062;-70
2022/01/14 03:48:40;;;;;;;40.97;23.92;;;3.00;99.90;;;;;;2114074;28;20118;-71
2022/01/14 03:49:43;;;;;;;42.30;23.90;;;3.00;99.90;;;;;;2113740;28;20030;-70
2022/01/14 03:50:45;;;;;;;42.13;23.17;;;3.00;99.90;;;;;;2113717;28;20024;-71
2022/01/14 03:51:46;;;;;;;38.63;22.20;;;3.00;99.90;;;;;;2113499;28;20138;-70
2022/01/14 03:52:47;;;;;;;38.92;22.05;;;3.10;99.90;;;;;;2113788;28;20031;-70
2022/01/14 03:53:48;;;;;;;41.92;23.60;;;3.10;99.90;;;;;;2113360;28;20032;-70
2022/01/14 03:54:52;;;;;;;37.70;21.63;;;3.10;99.90;;;;;;2113792;28;20027;-71
2022/01/14 03:55:53;;;;;;;40.38;23.50;;;3.00;99.90;;;;;;2114344;28;20019;-71
2022/01/14 03:56:55;;;;;;;42.50;23.50;;;3.10;99.90;;;;;;2113618;28;20115;-71
2022/01/14 03:57:56;;;;;;;38.85;22.50;;;3.10;99.90;;;;;;2105601;28;20044;-71
2022/01/14 03:58:57;;;;;;;39.53;22.27;;;3.10;99.90;;;;;;2105180;28;20020;-71
2022/01/14 03:59:58;;;;;;;42.95;24.15;;;3.10;99.90;;;;;;2114126;28;20395;-71
2022/01/14 04:00:59;;;;;;;39.15;22.38;;;3.10;99.90;;;;;;2113779;28;20019;-70
2022/01/14 04:02:03;;;;;;;39.30;22.38;;;3.10;99.90;;;;;;2114008;28;20012;-71
2022/01/14 04:03:14;;;;;;;39.80;22.13;;;3.10;99.90;;;;;;2114067;28;20034;-71
2022/01/14 04:04:15;;;;;;;41.22;23.48;;;3.10;99.90;;;;;;2114252;28;20036;-71
2022/01/14 04:05:18;;;;;;;40.95;22.58;;;3.10;99.90;;;;;;2114003;28;20111;-70
2022/01/14 04:06:19;;;;;;;38.63;21.90;;;3.10;99.90;;;;;;2114129;28;20031;-72
2022/01/14 04:07:20;;;;;;;39.60;22.30;;;3.10;99.90;;;;;;2113944;28;20027;-72
2022/01/14 04:08:20;;;;;;;40.78;23.10;;;3.00;99.90;;;;;;2113613;28;20035;-71
2022/01/14 04:09:21;;;;;;;39.35;22.33;;;3.00;99.90;;;;;;2096804;28;20028;-72
2022/01/14 04:10:22;;;;;;;40.28;22.90;;;3.10;99.90;;;;;;2096517;28;20103;-72
2022/01/14 04:11:29;;;;;;;42.13;22.05;;;3.10;99.90;;;;;;2112941;28;20027;-71
2022/01/14 04:12:58;;;;;;;37.70;21.27;;;3.10;99.90;;;;;;2114316;28;20080;-71
2022/01/14 04:13:54;;;;;;;39.22;21.88;;;3.10;99.90;;;;;;2114022;28;20050;-72
2022/01/14 04:15:56;;;;;;;38.97;21.77;;;3.10;99.90;;;;;;2113532;28;20171;-71
2022/01/14 04:16:57;;;;;;;40.35;22.33;;;3.00;99.90;;;;;;2113372;28;20027;-72
2022/01/14 04:17:58;;;;;;;38.95;22.63;;;3.00;99.90;;;;;;2105165;28;20028;-71
2022/01/14 04:18:59;;;;;;;39.90;22.48;;;3.00;99.90;;;;;;2113687;28;20418;-72
2022/01/14 04:20:00;;;;;;;43.88;24.25;;;3.00;99.90;;;;;;2114323;28;20028;-72
2022/01/14 04:21:01;;;;;;;39.55;23.25;;;3.00;99.90;;;;;;2114487;28;20419;-72
2022/01/14 04:22:02;;;;;;;42.90;23.65;;;3.00;99.90;;;;;;2115758;28;20027;-72
2022/01/14 04:23:04;;;;;;;46.28;23.08;;;3.00;99.90;;;;;;2116432;28;20032;-72
2022/01/14 04:24:08;;;;;;;41.60;22.80;;;3.00;99.90;;;;;;2116657;28;20027;-72
2022/01/14 04:25:11;;;;;;;40.53;22.98;;;3.00;99.90;;;;;;2108798;28;20039;-72
2022/01/14 04:26:17;;;;;;;43.28;23.35;;;3.00;99.90;;;;;;2107587;28;20111;-72
2022/01/14 04:27:18;;;;;;;40.80;22.98;;;3.00;99.90;;;;;;2113901;28;20479;-72
2022/01/14 04:28:25;;;;;;;40.90;23.00;;;3.00;99.90;;;;;;2105031;28;20031;-71
2022/01/14 04:29:26;;;;;;;44.22;23.88;;;3.00;99.90;;;;;;2106069;28;20497;-72
2022/01/14 04:30:27;;;;;;;41.05;21.92;;;3.00;99.90;;;;;;2113254;28;20038;-72
2022/01/14 04:31:28;;;;;;;39.72;22.65;;;3.00;99.90;;;;;;2104250;28;20028;-72
2022/01/14 04:32:29;;;;;;;37.40;21.65;;;3.00;99.90;;;;;;2113379;28;20106;-71
2022/01/14 04:33:31;;;;;;;38.67;21.00;;;3.00;99.90;;;;;;2113708;28;20062;-72
2022/01/14 04:34:35;;;;;;;40.63;21.98;;;3.00;99.90;;;;;;2114129;28;20392;-72
2022/01/14 04:35:37;;;;;;;40.70;22.33;;;3.00;99.90;;;;;;2116521;28;20490;-72
2022/01/14 04:36:37;;;;;;;36.03;21.17;;;2.90;99.90;;;;;;2116325;28;20031;-71
2022/01/14 04:37:40;;;;;;;37.60;21.33;;;3.00;99.90;;;;;;2116318;28;20028;-71
2022/01/14 04:38:43;;;;;;;36.95;21.42;;;2.90;99.90;;;;;;2115675;28;20506;-73
2022/01/14 04:39:44;;;;;;;39.53;21.20;;;2.90;99.90;;;;;;2113266;28;20376;-71
2022/01/14 04:40:45;;;;;;;36.75;21.40;;;3.00;99.90;;;;;;2112581;28;20107;-70
2022/01/14 04:41:45;;;;;;;36.55;20.73;;;2.90;99.90;;;;;;2104565;28;20031;-71
2022/01/14 04:42:51;;;;;;;41.65;22.08;;;3.00;99.90;;;;;;2089036;28;20032;-72
2022/01/14 04:43:53;;;;;;;40.60;22.10;;;3.00;99.90;;;;;;2105687;28;20110;-71
2022/01/14 04:44:55;;;;;;;38.85;21.48;;;3.00;99.90;;;;;;2113930;28;20032;-71
2022/01/14 04:47:14;;;;;;;36.00;20.58;;;2.90;99.90;;;;;;2105170;28;20020;-71
2022/01/14 04:48:19;;;;;;;38.35;21.35;;;3.00;99.90;;;;;;2113798;28;20030;-71
2022/01/14 04:49:20;;;;;;;34.70;19.45;;;2.90;99.90;;;;;;2104691;28;20038;-71
2022/01/14 04:50:24;;;;;;;34.83;20.17;;;3.00;99.90;;;;;;2105139;28;20514;-71
2022/01/14 04:51:24;;;;;;;36.65;20.88;;;3.00;99.90;;;;;;2121016;28;20027;-71
2022/01/14 04:52:29;;;;;;;36.35;20.52;;;3.00;99.90;;;;;;2113569;28;20046;-71
2022/01/14 04:53:32;;;;;;;35.45;20.95;;;3.00;99.90;;;;;;2113848;28;20023;-72
2022/01/14 04:54:33;;;;;;;37.33;20.90;;;3.00;99.90;;;;;;2113777;28;20095;-71
2022/01/14 04:55:33;;;;;;;36.42;20.42;;;3.00;99.90;;;;;;2115026;28;20080;-71
2022/01/14 04:56:40;;;;;;;37.25;20.83;;;3.00;99.90;;;;;;2115613;28;20020;-71
2022/01/14 04:57:45;;;;;;;36.03;20.70;;;3.00;99.90;;;;;;2115344;28;20030;-71
2022/01/14 04:58:46;;;;;;;38.40;20.42;;;3.00;99.90;;;;;;2114482;28;20794;-71
2022/01/14 04:59:53;;;;;;;37.97;20.48;;;3.00;99.90;;;;;;2114315;28;20036;-72
2022/01/14 05:00:56;;;;;;;34.63;20.27;;;3.00;99.90;;;;;;2114348;28;20666;-72
2022/01/14 05:01:58;;;;;;;34.50;19.25;;;3.00;99.90;;;;;;2113720;28;20053;-72
2022/01/14 05:02:59;;;;;;;33.92;19.70;;;3.00;99.90;;;;;;2115416;28;20424;-72
2022/01/14 05:04:02;;;;;;;36.35;20.90;;;3.00;99.90;;;;;;2115775;28;20024;-72
2022/01/14 05:05:10;;;;;;;36.47;20.98;;;3.00;99.90;;;;;;2115535;28;20036;-72
2022/01/14 05:06:11;;;;;;;34.80;19.88;;;3.00;99.90;;;;;;2115237;28;20047;-72
2022/01/14 05:07:22;;;;;;;38.97;20.65;;;3.00;99.90;;;;;;2122545;27;20034;-72
2022/01/14 05:08:27;;;;;;;35.63;19.92;;;3.00;99.90;;;;;;2105687;28;20042;-72
2022/01/14 05:09:37;;;;;;;37.78;20.83;;;3.00;99.90;;;;;;2097554;28;20635;-72
2022/01/14 05:12:04;;;;;;;41.95;21.05;;;2.90;99.90;;;;;;2113797;28;20096;-72
2022/01/14 05:13:05;;;;;;;36.40;20.45;;;2.90;99.90;;;;;;2113993;28;20035;-72
2022/01/14 05:14:09;;;;;;;35.17;19.38;;;2.90;99.90;;;;;;2113450;28;20074;-72
2022/01/14 05:15:11;;;;;;;35.83;20.33;;;2.90;99.90;;;;;;2113844;28;20024;-72
2022/01/14 05:16:21;;;;;;;38.30;21.48;;;2.90;99.90;;;;;;2113824;28;20824;-72
2022/01/14 05:17:22;;;;;;;40.35;21.45;;;2.90;99.90;;;;;;2098369;28;20036;-71
2022/01/14 05:18:24;;;;;;;38.40;21.48;;;3.00;99.90;;;;;;2105420;28;20035;-72
2022/01/14 05:19:29;;;;;;;36.40;21.13;;;2.90;99.90;;;;;;2114366;28;20051;-72
2022/01/14 05:20:30;;;;;;;42.30;22.75;;;3.00;99.90;;;;;;2114529;28;20027;-72
2022/01/14 05:21:30;;;;;;;39.38;22.08;;;3.00;99.90;;;;;;2113890;28;20304;-72
2022/01/14 05:22:32;;;;;;;42.42;21.65;;;2.90;99.90;;;;;;2113906;28;20145;-71
2022/01/14 05:23:35;;;;;;;45.10;23.27;;;3.00;99.90;;;;;;2114203;28;20124;-72
2022/01/14 05:24:36;;;;;;;39.53;21.95;;;3.00;99.90;;;;;;2115077;28;20028;-72
2022/01/14 05:25:38;;;;;;;43.72;23.08;;;3.00;99.90;;;;;;2113817;28;20044;-72
2022/01/14 05:26:39;;;;;;;42.88;23.10;;;3.00;99.90;;;;;;2113626;28;20028;-72
2022/01/14 05:27:42;;;;;;;39.85;21.95;;;3.00;99.90;;;;;;2113775;28;20448;-72
2022/01/14 05:28:47;;;;;;;40.03;21.92;;;3.00;99.90;;;;;;2113091;28;20062;-72
2022/01/14 05:29:50;;;;;;;40.90;21.73;;;3.00;99.90;;;;;;2113526;28;20107;-72
2022/01/14 05:30:51;;;;;;;40.53;21.83;;;3.00;99.90;;;;;;2112734;28;20024;-71
2022/01/14 05:32:02;;;;;;;43.17;22.40;;;3.00;99.90;;;;;;2113215;28;20023;-72
2022/01/14 05:33:03;;;;;;;40.15;21.70;;;3.00;99.90;;;;;;2113185;28;20114;-72
2022/01/14 05:34:04;;;;;;;37.85;21.00;;;3.00;99.90;;;;;;2113193;28;20039;-72
2022/01/14 05:35:08;;;;;;;38.15;21.15;;;3.00;99.90;;;;;;2113349;28;20032;-72
2022/01/14 05:36:12;;;;;;;37.15;21.35;;;3.00;99.90;;;;;;2113333;28;20027;-72
2022/01/14 05:37:13;;;;;;;40.10;21.58;;;3.00;99.90;;;;;;2113638;28;20036;-72
2022/01/14 05:38:14;;;;;;;37.00;20.42;;;3.00;99.90;;;;;;2104962;28;20028;-72
2022/01/14 05:39:15;;;;;;;38.10;21.48;;;3.00;99.90;;;;;;2113335;28;20035;-72
2022/01/14 05:40:18;;;;;;;37.47;20.23;;;3.00;99.90;;;;;;2113012;28;20461;-72
2022/01/14 05:41:19;;;;;;;36.92;20.45;;;3.00;99.90;;;;;;2096842;28;20078;-72
2022/01/14 05:42:19;;;;;;;36.22;19.77;;;3.00;99.90;;;;;;2106232;28;20023;-72
2022/01/14 05:43:20;;;;;;;35.90;20.10;;;3.10;99.90;;;;;;2114885;28;20111;-72
2022/01/14 05:44:23;;;;;;;37.22;19.92;;;3.10;99.90;;;;;;2114823;28;20137;-71
2022/01/14 05:45:25;;;;;;;35.65;20.15;;;3.00;99.90;;;;;;2115289;28;20023;-71
2022/01/14 05:46:25;;;;;;;35.63;19.52;;;3.00;99.90;;;;;;2114809;28;20043;-71
2022/01/14 05:47:26;;;;;;;34.28;19.75;;;3.00;99.90;;;;;;2114881;28;20122;-72